createdAt,value
2023-03-21T00:02:08.075Z,46.40
2023-03-21T00:07:11.145Z,49.60
2023-03-21T00:12:14.216Z,41.90
2023-03-21T00:17:15.942Z,47.23
2023-03-21T00:22:18.980Z,43.73
2023-03-21T00:27:53.372Z,43.43
2023-03-21T00:32:55.014Z,43.30
2023-03-21T00:37:58.989Z,36.37
2023-03-21T00:43:00.704Z,39.53
2023-03-21T00:48:02.598Z,37.63
2023-03-21T00:53:05.810Z,36.20
2023-03-21T00:58:07.536Z,65.00
2023-03-21T01:03:23.809Z,41.13
2023-03-21T01:08:35.184Z,37.63
2023-03-21T01:13:53.367Z,35.37
2023-03-21T01:18:59.556Z,37.07
2023-03-21T01:24:02.721Z,38.17
2023-03-21T01:29:04.641Z,34.90
2023-03-21T01:34:06.386Z,46.13
2023-03-21T01:39:09.591Z,38.53
2023-03-21T01:44:14.762Z,39.07
2023-03-21T01:49:18.258Z,38.80
2023-03-21T01:54:26.935Z,37.67
2023-03-21T01:59:31.733Z,37.80
2023-03-21T02:04:50.794Z,38.80
2023-03-21T02:09:57.512Z,42.80
2023-03-21T02:14:59.307Z,46.97
2023-03-21T02:20:34.712Z,41.17
2023-03-21T02:26:14.260Z,38.60
2023-03-21T02:31:26.402Z,41.93
2023-03-21T02:36:40.637Z,46.80
2023-03-21T02:41:47.529Z,44.60
2023-03-21T02:46:59.739Z,42.17
2023-03-21T02:52:15.567Z,41.50
2023-03-21T02:57:22.877Z,43.63
2023-03-21T03:02:27.777Z,40.77
2023-03-21T03:07:34.927Z,39.40
2023-03-21T03:12:43.059Z,36.20
2023-03-21T03:17:50.884Z,40.23
2023-03-21T03:22:56.228Z,47.43
2023-03-21T03:27:59.441Z,46.20
2023-03-21T03:33:02.286Z,37.53
2023-03-21T03:38:05.982Z,44.60
2023-03-21T03:43:10.727Z,44.67
2023-03-21T03:48:17.444Z,34.23
2023-03-21T03:53:21.195Z,44.30
2023-03-21T03:58:36.370Z,39.50
2023-03-21T04:03:54.454Z,38.27
2023-03-21T04:09:03.464Z,46.40
2023-03-21T04:14:09.166Z,41.13
2023-03-21T04:19:11.149Z,42.60
2023-03-21T04:24:13.822Z,45.30
2023-03-21T04:29:18.840Z,44.47
2023-03-21T04:34:40.300Z,43.97
2023-03-21T04:39:42.891Z,42.80
2023-03-21T04:44:46.129Z,44.33
2023-03-21T04:49:51.611Z,38.47
2023-03-21T04:54:53.589Z,37.60
2023-03-21T04:59:56.603Z,37.73
2023-03-21T05:04:58.915Z,42.43
2023-03-21T05:10:02.451Z,41.80
2023-03-21T05:15:08.107Z,43.20
2023-03-21T05:20:11.595Z,42.27
2023-03-21T05:25:13.622Z,38.63
2023-03-21T05:30:35.736Z,44.57
2023-03-21T05:35:38.546Z,39.30
2023-03-21T05:40:46.742Z,47.27
2023-03-21T05:45:50.297Z,43.20
2023-03-21T05:50:53.764Z,47.53
2023-03-21T05:55:57.101Z,42.17
2023-03-21T06:01:18.866Z,40.57
2023-03-21T06:06:28.840Z,35.73
2023-03-21T06:11:35.985Z,39.30
2023-03-21T06:17:02.573Z,42.67
2023-03-21T06:22:06.756Z,46.20
2023-03-21T06:27:11.442Z,35.23
2023-03-21T06:32:26.807Z,41.57
2023-03-21T06:37:33.244Z,40.13
2023-03-21T06:42:35.690Z,37.77
2023-03-21T06:47:45.307Z,32.50
2023-03-21T06:52:59.435Z,29.37
2023-03-21T06:58:03.350Z,37.33
2023-03-21T07:03:07.011Z,32.27
2023-03-21T07:08:11.375Z,30.97
2023-03-21T07:13:13.999Z,29.97
2023-03-21T07:18:20.892Z,31.50
2023-03-21T07:23:23.443Z,35.40
2023-03-21T07:28:25.356Z,30.07
2023-03-21T07:33:28.439Z,28.40
2023-03-21T07:38:33.908Z,31.73
2023-03-21T07:43:37.099Z,33.60
2023-03-21T07:48:45.396Z,34.67
2023-03-21T07:53:48.410Z,27.37
2023-03-21T07:58:50.109Z,28.70
2023-03-21T08:03:53.631Z,26.73
2023-03-21T08:08:55.369Z,24.07
2023-03-21T08:13:57.209Z,26.50
2023-03-21T08:19:00.280Z,32.00
2023-03-21T08:24:02.043Z,31.17
2023-03-21T08:29:03.793Z,28.53
2023-03-21T08:34:07.498Z,30.87
2023-03-21T08:39:09.860Z,29.03
2023-03-21T08:44:11.819Z,25.40
2023-03-21T08:49:15.202Z,28.97
2023-03-21T08:54:19.207Z,28.33
2023-03-21T08:59:21.012Z,27.27
2023-03-21T09:04:25.955Z,26.47
2023-03-21T09:09:27.907Z,35.80
2023-03-21T09:14:29.694Z,29.63
2023-03-21T09:19:32.974Z,26.83
2023-03-21T09:24:34.724Z,26.97
2023-03-21T09:29:36.678Z,24.87
2023-03-21T09:34:41.280Z,27.80
2023-03-21T09:39:45.255Z,28.20
2023-03-21T09:44:53.583Z,27.07
2023-03-21T09:50:07.597Z,25.23
2023-03-21T09:55:19.404Z,27.27
2023-03-21T10:00:25.653Z,22.50
2023-03-21T10:05:30.130Z,29.53
2023-03-21T10:10:33.099Z,31.63
2023-03-21T10:15:34.786Z,27.67
2023-03-21T10:20:38.054Z,28.40
2023-03-21T10:25:41.354Z,25.73
2023-03-21T10:30:44.606Z,35.23
2023-03-21T10:35:50.602Z,26.47
2023-03-21T10:40:52.408Z,27.17
2023-03-21T10:45:54.755Z,28.53
2023-03-21T10:50:57.923Z,31.30
2023-03-21T10:56:00.488Z,33.20
2023-03-21T11:01:03.246Z,28.93
2023-03-21T11:06:08.112Z,41.77
2023-03-21T11:11:12.370Z,35.33
2023-03-21T11:16:23.065Z,30.83
2023-03-21T11:21:29.750Z,30.60
2023-03-21T11:26:32.937Z,29.07
2023-03-21T11:31:38.533Z,35.23
2023-03-21T11:36:41.771Z,31.83
2023-03-21T11:41:43.887Z,28.57
2023-03-21T11:46:45.637Z,26.50
2023-03-21T11:51:51.298Z,27.27
2023-03-21T11:56:54.123Z,29.30
2023-03-21T12:02:02.189Z,31.60
2023-03-21T12:07:09.373Z,22.63
2023-03-21T12:12:20.120Z,22.90
2023-03-21T12:17:30.392Z,25.27
2023-03-21T12:22:35.815Z,26.07
2023-03-21T12:27:44.418Z,19.50
2023-03-21T12:32:54.293Z,22.73
2023-03-21T12:38:02.058Z,17.03
2023-03-21T12:43:24.457Z,15.93
2023-03-21T12:48:36.398Z,15.80
2023-03-21T12:53:45.262Z,18.17
2023-03-21T12:58:49.783Z,20.40
2023-03-21T13:03:56.522Z,22.07
2023-03-21T13:09:00.944Z,21.30
2023-03-21T13:14:04.534Z,28.57
2023-03-21T13:19:12.629Z,27.03
2023-03-21T13:24:27.182Z,23.60
2023-03-21T13:29:29.566Z,22.90
2023-03-21T13:34:31.239Z,25.23
2023-03-21T13:39:34.281Z,26.00
2023-03-21T13:44:40.393Z,24.63
2023-03-21T13:49:42.190Z,27.93
2023-03-21T13:54:49.520Z,27.27
2023-03-21T14:00:13.921Z,27.37
2023-03-21T14:05:18.116Z,30.13
2023-03-21T14:10:23.402Z,31.00
2023-03-21T14:15:26.324Z,29.83
2023-03-21T14:20:28.961Z,33.60
2023-03-21T14:25:41.042Z,34.13
2023-03-21T14:30:50.844Z,33.03
2023-03-21T14:35:52.716Z,32.50
2023-03-21T14:40:55.846Z,36.20
2023-03-21T14:45:57.706Z,35.13
2023-03-21T14:51:02.021Z,28.73
2023-03-21T14:56:07.564Z,29.63
2023-03-21T15:01:13.789Z,35.90
2023-03-21T15:06:15.950Z,31.30
2023-03-21T15:11:19.267Z,33.20
2023-03-21T15:16:21.185Z,38.60
2023-03-21T15:21:23.718Z,36.20
2023-03-21T15:26:26.966Z,29.00
2023-03-21T15:31:29.706Z,30.67
2023-03-21T15:36:32.929Z,38.90
2023-03-21T15:41:36.015Z,37.03
2023-03-21T15:46:44.782Z,34.37
2023-03-21T15:51:47.715Z,35.37
2023-03-21T15:56:52.481Z,35.80
2023-03-21T16:01:54.228Z,34.80
2023-03-21T16:07:00.493Z,39.80
2023-03-21T16:12:08.485Z,42.80
2023-03-21T16:17:17.545Z,35.63
2023-03-21T16:22:21.305Z,28.30
2023-03-21T16:27:24.529Z,30.80
2023-03-21T16:32:28.737Z,29.87
2023-03-21T16:37:30.470Z,28.53
2023-03-21T16:42:33.650Z,25.73
2023-03-21T16:47:35.339Z,27.97
2023-03-21T16:52:37.098Z,29.60
2023-03-21T16:57:40.342Z,33.33
2023-03-21T17:02:42.452Z,27.97
2023-03-21T17:07:45.127Z,31.27
2023-03-21T17:12:48.561Z,27.73
2023-03-21T17:17:50.330Z,35.57
2023-03-21T17:22:52.129Z,28.77
2023-03-21T17:27:56.199Z,29.80
2023-03-21T17:32:58.712Z,29.10
2023-03-21T17:38:00.433Z,56.77
2023-03-21T17:43:05.802Z,24.67
2023-03-21T17:48:07.778Z,27.67
2023-03-21T17:53:09.453Z,33.30
2023-03-21T17:58:12.919Z,26.63
2023-03-21T18:03:15.678Z,28.17
2023-03-21T18:08:18.267Z,25.07
2023-03-21T18:13:21.378Z,19.53
2023-03-21T18:18:23.114Z,25.87
2023-03-21T18:23:24.816Z,18.80
2023-03-21T18:28:27.854Z,19.00
2023-03-21T18:33:29.990Z,20.70
2023-03-21T18:38:31.733Z,22.40
2023-03-21T18:44:05.300Z,28.80
2023-03-21T18:48:57.253Z,18.57
2023-03-21T18:54:00.836Z,20.53
2023-03-21T18:59:04.570Z,19.30
2023-03-21T19:04:20.755Z,20.50
2023-03-21T19:09:31.236Z,16.67
2023-03-21T19:14:35.139Z,17.47
2023-03-21T19:19:37.129Z,16.60
2023-03-21T19:24:40.331Z,15.67
2023-03-21T19:29:43.531Z,19.80
2023-03-21T19:34:45.228Z,20.27
2023-03-21T19:39:47.435Z,16.73
2023-03-21T19:44:50.556Z,14.57
2023-03-21T19:55:15.880Z,16.93
2023-03-21T20:00:19.643Z,17.50
2023-03-21T20:05:22.008Z,17.43
2023-03-21T20:10:27.278Z,25.03
2023-03-21T20:15:31.133Z,21.53
2023-03-21T20:20:33.188Z,17.20
2023-03-21T20:25:35.877Z,20.00
2023-03-21T20:30:39.537Z,20.90
2023-03-21T20:41:04.681Z,19.10
2023-03-21T20:46:08.672Z,20.50
2023-03-21T20:52:14.872Z,20.00
2023-03-21T20:56:34.674Z,19.00
2023-03-21T21:01:38.471Z,18.17
2023-03-21T21:06:40.217Z,19.87
2023-03-21T21:12:06.549Z,19.67
2023-03-21T21:17:23.777Z,21.00
2023-03-21T21:22:28.109Z,19.43
2023-03-21T21:27:30.000Z,18.93
2023-03-21T21:32:33.077Z,19.43
2023-03-21T21:37:34.856Z,16.30
2023-03-21T21:42:36.629Z,14.90
2023-03-21T21:47:39.728Z,17.67
2023-03-21T21:52:43.550Z,19.23
2023-03-21T21:57:50.197Z,15.80
2023-03-21T22:02:53.370Z,14.13
2023-03-21T22:07:55.476Z,15.70
2023-03-21T22:12:57.222Z,19.80
2023-03-21T22:18:00.298Z,18.17
2023-03-21T22:23:02.017Z,13.70
2023-03-21T22:28:03.821Z,13.37
2023-03-21T22:33:09.949Z,12.93
2023-03-21T22:38:14.168Z,12.03
2023-03-21T22:43:15.913Z,11.53
2023-03-21T22:48:19.283Z,15.07
2023-03-21T22:53:20.955Z,11.97
2023-03-21T22:58:22.825Z,15.67
2023-03-21T23:03:25.945Z,11.60
2023-03-21T23:08:27.662Z,13.90
2023-03-21T23:13:30.015Z,15.17
2023-03-21T23:18:33.691Z,13.10
2023-03-21T23:23:38.380Z,12.97
2023-03-21T23:28:40.454Z,9.97
2023-03-21T23:33:43.600Z,14.77
2023-03-21T23:38:45.874Z,14.87
2023-03-21T23:43:47.857Z,16.17
2023-03-21T23:48:51.054Z,12.57
2023-03-21T23:53:53.343Z,13.07
2023-03-21T23:58:56.623Z,14.77
